Time;durP1;ratioP1;P1;durP2;ratioP2;P2;SDS_P1;SDS_P2;PMS_P1;PMS_P2;Temp;Humidity;BMP_temperature;BMP_pressure;BME280_temperature;BME280_humidity;BME280_pressure;Samples;Min_cycle;Max_cycle;Signal;HPM_P1;HPM_P2
2021/11/17 02:27:36;;;;;;;7.32;5.45;;;8.50;99.90;;;;;;5034236;28;20218;-71
2021/11/17 02:30:20;;;;;;;7.53;5.57;;;8.60;99.90;;;;;;5033891;28;20311;-72
2021/11/17 02:33:00;;;;;;;9.10;6.38;;;8.60;99.90;;;;;;5033963;28;20212;-71
2021/11/17 02:35:41;;;;;;;8.82;6.38;;;8.50;99.90;;;;;;5033702;28;20621;-71
2021/11/17 02:38:22;;;;;;;8.13;6.60;;;8.50;99.90;;;;;;5033842;28;20298;-71
2021/11/17 02:41:05;;;;;;;7.32;5.82;;;8.50;99.90;;;;;;5034096;28;20207;-71
2021/11/17 02:43:54;;;;;;;8.40;6.30;;;8.50;99.90;;;;;;5033750;28;20204;-71
2021/11/17 02:46:45;;;;;;;8.60;6.60;;;8.60;99.90;;;;;;5033724;28;20208;-71
2021/11/17 02:49:41;;;;;;;8.98;6.97;;;8.60;99.90;;;;;;5033386;28;20303;-72
2021/11/17 02:52:26;;;;;;;7.35;6.32;;;8.50;99.90;;;;;;5033599;28;20254;-71
2021/11/17 02:55:13;;;;;;;7.63;6.53;;;8.50;99.90;;;;;;5033477;28;20208;-72
2021/11/17 02:58:13;;;;;;;7.05;5.70;;;8.50;99.90;;;;;;5033570;28;20223;-71
2021/11/17 03:00:57;;;;;;;9.88;6.90;;;8.60;99.90;;;;;;5033394;28;20635;-72
2021/11/17 03:03:36;;;;;;;6.50;5.18;;;8.50;99.90;;;;;;5033554;28;20200;-71
2021/11/17 03:06:16;;;;;;;7.88;6.10;;;8.50;99.90;;;;;;5033196;28;20207;-71
2021/11/17 03:08:56;;;;;;;8.10;6.38;;;8.50;99.90;;;;;;5033186;28;20223;-71
2021/11/17 03:11:51;;;;;;;8.18;6.22;;;8.50;99.90;;;;;;5033143;28;20678;-71
2021/11/17 03:14:31;;;;;;;7.57;6.10;;;8.50;99.90;;;;;;5033459;28;20211;-71
2021/11/17 03:17:12;;;;;;;9.00;7.00;;;8.50;99.90;;;;;;5033400;28;20298;-72
2021/11/17 03:19:51;;;;;;;8.48;6.43;;;8.40;99.90;;;;;;5033400;28;20188;-71
2021/11/17 03:22:31;;;;;;;8.75;6.00;;;8.40;99.90;;;;;;5033412;28;20207;-72
2021/11/17 03:25:12;;;;;;;15.07;8.32;;;8.50;99.90;;;;;;5033151;28;20547;-71
2021/11/17 03:28:00;;;;;;;12.48;8.85;;;8.40;99.90;;;;;;5033346;28;20705;-72
2021/11/17 03:30:50;;;;;;;10.32;6.95;;;8.40;99.90;;;;;;5033263;28;20220;-71
2021/11/17 03:33:34;;;;;;;12.45;8.77;;;8.40;99.90;;;;;;5033274;28;20294;-71
2021/11/17 03:36:17;;;;;;;13.18;9.15;;;8.30;99.90;;;;;;5034908;28;20577;-71
2021/11/17 03:39:03;;;;;;;8.70;6.80;;;8.30;99.90;;;;;;5037121;28;20311;-71
2021/11/17 03:41:55;;;;;;;8.18;6.60;;;8.30;99.90;;;;;;5037148;28;20200;-71
2021/11/17 03:45:09;;;;;;;8.00;6.50;;;8.30;99.90;;;;;;5026744;28;20294;-72
2021/11/17 03:47:59;;;;;;;8.45;6.57;;;8.20;99.90;;;;;;4995274;28;20224;-71
2021/11/17 03:50:45;;;;;;;9.20;6.60;;;8.20;99.90;;;;;;4995384;28;20229;-70
2021/11/17 03:53:26;;;;;;;7.95;6.85;;;8.20;99.90;;;;;;5025474;28;20208;-71
2021/11/17 03:56:12;;;;;;;9.80;7.50;;;8.20;99.90;;;;;;5036621;28;20212;-71
2021/11/17 03:58:51;;;;;;;8.93;6.68;;;8.20;99.90;;;;;;5036530;28;20225;-71
2021/11/17 04:01:33;;;;;;;8.65;6.43;;;8.20;99.90;;;;;;5036666;28;20200;-70
2021/11/17 04:04:17;;;;;;;10.25;6.50;;;8.20;99.90;;;;;;5036674;28;20204;-71
2021/11/17 04:07:06;;;;;;;8.75;6.05;;;8.20;99.90;;;;;;5036220;28;20295;-71
2021/11/17 04:09:46;;;;;;;7.60;5.63;;;8.20;99.90;;;;;;5036533;28;20223;-71
2021/11/17 04:12:25;;;;;;;8.95;5.50;;;8.20;99.90;;;;;;5036250;28;20232;-71
2021/11/17 04:15:04;;;;;;;6.70;5.25;;;8.20;99.90;;;;;;5036317;28;20212;-71
2021/11/17 04:17:46;;;;;;;6.40;4.95;;;8.20;99.90;;;;;;5036231;28;20322;-71
2021/11/17 04:20:28;;;;;;;8.07;5.43;;;8.20;99.90;;;;;;5036133;28;20291;-71
2021/11/17 04:23:12;;;;;;;13.95;7.13;;;8.20;99.90;;;;;;5036339;28;20262;-71
2021/11/17 04:25:53;;;;;;;10.30;6.60;;;8.20;99.90;;;;;;5035994;28;20204;-72
2021/11/17 04:28:33;;;;;;;9.25;6.65;;;8.20;99.90;;;;;;5036058;28;20230;-72
2021/11/17 04:31:28;;;;;;;8.85;6.70;;;8.20;99.90;;;;;;5036214;28;20228;-71
2021/11/17 04:34:23;;;;;;;8.32;6.28;;;8.20;99.90;;;;;;5036136;28;20226;-71
2021/11/17 04:37:11;;;;;;;10.30;6.28;;;8.20;99.90;;;;;;5025734;28;20256;-71
2021/11/17 04:40:02;;;;;;;8.57;6.20;;;8.20;99.90;;;;;;5036105;28;20554;-71
2021/11/17 04:42:44;;;;;;;10.00;7.00;;;8.30;99.90;;;;;;5035964;28;20232;-71
2021/11/17 04:45:23;;;;;;;11.00;6.70;;;8.30;99.90;;;;;;5035729;28;20188;-71
2021/11/17 04:48:03;;;;;;;10.82;6.97;;;8.30;99.90;;;;;;5034905;28;20230;-72
2021/11/17 04:50:50;;;;;;;8.65;6.55;;;8.20;99.90;;;;;;5035762;28;20203;-71
2021/11/17 04:53:33;;;;;;;8.77;6.60;;;8.30;99.90;;;;;;5035761;28;20258;-71
2021/11/17 04:56:24;;;;;;;8.45;6.30;;;8.40;99.90;;;;;;5035653;28;20219;-71
2021/11/17 04:59:06;;;;;;;10.20;6.80;;;8.40;99.90;;;;;;5035657;28;20234;-70
2021/11/17 05:01:45;;;;;;;9.38;6.40;;;8.40;99.90;;;;;;5035493;28;20200;-71
2021/11/17 05:04:27;;;;;;;9.77;6.57;;;8.40;99.90;;;;;;5035569;28;20573;-71
2021/11/17 05:07:06;;;;;;;10.13;6.57;;;8.50;99.90;;;;;;5035405;28;20208;-71
2021/11/17 05:09:44;;;;;;;10.20;7.60;;;8.50;99.90;;;;;;5036117;28;20279;-71
2021/11/17 05:12:25;;;;;;;9.93;6.88;;;8.40;99.90;;;;;;5035247;28;20224;-72
2021/11/17 05:15:02;;;;;;;10.05;7.20;;;8.40;99.90;;;;;;5035072;28;20563;-71
2021/11/17 05:17:40;;;;;;;9.02;6.28;;;8.40;99.90;;;;;;5035063;28;20238;-72
2021/11/17 05:20:26;;;;;;;9.60;6.57;;;8.40;99.90;;;;;;5035259;28;20662;-71
2021/11/17 05:23:06;;;;;;;8.85;6.20;;;8.40;99.90;;;;;;5034963;28;20296;-71
2021/11/17 05:25:50;;;;;;;9.35;6.72;;;8.40;99.90;;;;;;5034966;28;20290;-71
2021/11/17 05:28:32;;;;;;;9.30;6.43;;;8.40;99.90;;;;;;5034873;28;20315;-71
2021/11/17 05:31:20;;;;;;;9.05;5.82;;;8.40;99.90;;;;;;5034947;28;20230;-72
2021/11/17 05:34:06;;;;;;;12.77;6.38;;;8.40;99.90;;;;;;5025173;28;20211;-70
2021/11/17 05:36:42;;;;;;;9.82;6.70;;;8.40;99.90;;;;;;5034658;28;20680;-71
2021/11/17 05:39:24;;;;;;;8.10;5.90;;;8.20;99.90;;;;;;5034685;28;20228;-71
2021/11/17 05:42:06;;;;;;;9.32;6.60;;;8.10;99.90;;;;;;5034854;28;20207;-72
2021/11/17 05:44:54;;;;;;;8.82;6.60;;;8.00;99.90;;;;;;5034604;28;20204;-72
2021/11/17 05:47:34;;;;;;;9.13;6.75;;;8.10;99.90;;;;;;5034562;28;20311;-72
2021/11/17 05:50:19;;;;;;;10.05;6.20;;;8.20;99.90;;;;;;5034685;28;20203;-71
2021/11/17 05:52:59;;;;;;;8.45;5.88;;;8.10;99.90;;;;;;5034593;28;20224;-71
2021/11/17 05:55:43;;;;;;;9.38;6.88;;;8.20;99.90;;;;;;5034621;28;20216;-71
2021/11/17 05:58:27;;;;;;;8.95;6.55;;;7.90;99.90;;;;;;5034344;28;20219;-72
2021/11/17 06:01:15;;;;;;;9.85;6.55;;;7.80;99.90;;;;;;5034703;28;20212;-71
2021/11/17 06:03:55;;;;;;;7.68;5.63;;;7.70;99.90;;;;;;5034339;28;20704;-71
2021/11/17 06:06:23;;;;;;;7.70;5.72;;;7.80;99.90;;;;;;5033966;28;20219;-71
2021/11/17 06:08:49;;;;;;;8.30;5.63;;;7.70;99.90;;;;;;5034292;28;20232;-71
2021/11/17 06:11:19;;;;;;;7.70;5.20;;;7.70;99.90;;;;;;5034427;28;20219;-71
2021/11/17 06:13:46;;;;;;;8.75;6.38;;;7.50;99.90;;;;;;5034199;28;20207;-71
2021/11/17 06:16:13;;;;;;;8.38;5.30;;;7.30;99.90;;;;;;5033848;28;20211;-72
2021/11/17 06:18:43;;;;;;;7.38;5.05;;;7.40;99.90;;;;;;5034066;28;20230;-71
2021/11/17 06:21:11;;;;;;;7.50;5.30;;;7.40;99.90;;;;;;5034078;28;20562;-72
2021/11/17 06:23:43;;;;;;;8.40;5.55;;;7.50;99.90;;;;;;5034078;28;20565;-71
2021/11/17 06:26:12;;;;;;;8.73;5.97;;;7.60;99.90;;;;;;5033726;28;20246;-71
2021/11/17 06:28:42;;;;;;;7.07;5.00;;;7.60;99.90;;;;;;5034509;28;20230;-71
2021/11/17 06:31:09;;;;;;;8.27;5.75;;;7.70;99.90;;;;;;5033896;28;20628;-72
2021/11/17 06:33:36;;;;;;;8.23;5.47;;;7.60;99.90;;;;;;5033812;28;20208;-71
2021/11/17 06:36:03;;;;;;;7.68;5.68;;;7.60;99.90;;;;;;5033713;28;20294;-72
2021/11/17 06:38:30;;;;;;;9.20;5.68;;;7.60;99.90;;;;;;5033534;28;20224;-71
2021/11/17 06:40:57;;;;;;;10.82;5.47;;;7.70;99.90;;;;;;5033780;28;20240;-71
2021/11/17 06:43:24;;;;;;;7.20;5.85;;;7.60;99.90;;;;;;5033699;28;20204;-71
2021/11/17 06:45:55;;;;;;;10.50;6.85;;;7.60;99.90;;;;;;5033308;28;20247;-71
2021/11/17 06:48:23;;;;;;;8.90;6.22;;;7.70;99.90;;;;;;5033412;28;20231;-72
2021/11/17 06:50:52;;;;;;;9.63;5.60;;;7.80;99.90;;;;;;5033479;28;20208;-72
2021/11/17 06:53:20;;;;;;;8.77;5.80;;;7.80;99.90;;;;;;5033570;28;20228;-72
2021/11/17 06:55:47;;;;;;;7.97;5.45;;;7.80;99.90;;;;;;5033270;28;20637;-72
2021/11/17 06:58:14;;;;;;;8.10;5.68;;;7.90;99.90;;;;;;5033480;28;20224;-71
2021/11/17 07:00:45;;;;;;;9.57;5.53;;;7.90;99.90;;;;;;5033559;28;20291;-72
2021/11/17 07:03:14;;;;;;;7.32;5.00;;;7.90;99.90;;;;;;5033578;28;20563;-71
2021/11/17 07:05:40;;;;;;;8.40;5.63;;;7.80;99.90;;;;;;5033386;28;20666;-71
2021/11/17 07:08:08;;;;;;;9.32;5.38;;;7.80;99.90;;;;;;5033181;28;20318;-71
2021/11/17 07:10:37;;;;;;;8.38;5.82;;;7.90;99.90;;;;;;5034938;28;20239;-71
2021/11/17 07:13:05;;;;;;;6.20;5.35;;;8.00;99.90;;;;;;5037496;28;20577;-72
2021/11/17 07:15:33;;;;;;;12.73;6.22;;;8.00;99.90;;;;;;5037287;28;20207;-72
2021/11/17 07:18:00;;;;;;;8.45;4.72;;;7.90;99.90;;;;;;5037544;28;20224;-71
2021/11/17 07:20:28;;;;;;;8.00;5.72;;;8.00;99.90;;;;;;5037453;28;20206;-72
2021/11/17 07:22:55;;;;;;;8.32;5.22;;;8.00;99.90;;;;;;5037381;28;20622;-71
2021/11/17 07:25:23;;;;;;;7.43;5.70;;;8.00;99.90;;;;;;5037035;28;20299;-72
2021/11/17 07:27:51;;;;;;;6.97;5.30;;;7.90;99.90;;;;;;5037958;28;20236;-71
2021/11/17 07:30:25;;;;;;;8.50;6.43;;;7.70;99.90;;;;;;5037249;28;20214;-71
2021/11/17 07:32:52;;;;;;;7.03;4.93;;;7.50;99.90;;;;;;5037207;28;20260;-71
2021/11/17 07:35:22;;;;;;;6.85;4.80;;;7.50;99.90;;;;;;5036935;28;20201;-71
2021/11/17 07:37:50;;;;;;;7.70;5.03;;;7.70;99.90;;;;;;5036963;28;20224;-71
2021/11/17 07:40:18;;;;;;;8.43;5.82;;;7.70;99.90;;;;;;5037101;28;20311;-71
2021/11/17 07:42:45;;;;;;;7.20;5.18;;;7.60;99.90;;;;;;5037051;28;20291;-70
2021/11/17 07:45:13;;;;;;;7.00;5.90;;;7.70;99.90;;;;;;5036578;28;20299;-72
2021/11/17 07:47:40;;;;;;;7.30;4.93;;;7.80;99.90;;;;;;5036814;28;20270;-71
2021/11/17 07:50:08;;;;;;;14.02;5.55;;;7.80;99.90;;;;;;5036685;28;20211;-72
2021/11/17 07:52:36;;;;;;;8.52;5.70;;;7.90;99.90;;;;;;5036826;28;20232;-71
2021/11/17 07:55:07;;;;;;;7.88;5.65;;;8.00;99.90;;;;;;5036703;28;20214;-71
2021/11/17 07:57:34;;;;;;;8.20;5.40;;;8.10;99.90;;;;;;5037171;28;20232;-71
2021/11/17 08:00:01;;;;;;;8.48;5.70;;;8.20;99.90;;;;;;5027148;28;20204;-70
2021/11/17 08:02:27;;;;;;;9.20;6.10;;;8.20;99.90;;;;;;5035542;28;20290;-70
2021/11/17 08:04:54;;;;;;;7.38;5.78;;;8.20;99.90;;;;;;5035073;28;20204;-70
2021/11/17 08:07:21;;;;;;;10.00;6.28;;;8.20;99.90;;;;;;5035367;28;20227;-71
2021/11/17 08:09:50;;;;;;;8.52;5.47;;;8.10;99.90;;;;;;5035222;28;20210;-70
2021/11/17 08:12:20;;;;;;;8.07;5.65;;;8.10;99.90;;;;;;5035388;28;20224;-70
2021/11/17 08:14:48;;;;;;;8.20;5.60;;;8.20;99.90;;;;;;5034780;28;20303;-71
2021/11/17 08:17:15;;;;;;;8.27;5.95;;;8.10;99.90;;;;;;5034865;28;20236;-71
2021/11/17 08:19:42;;;;;;;6.25;5.43;;;8.10;99.90;;;;;;5034890;28;20204;-71
2021/11/17 08:22:10;;;;;;;5.72;4.60;;;8.20;99.90;;;;;;5033317;28;20204;-71
2021/11/17 08:24:38;;;;;;;5.00;4.32;;;8.20;99.90;;;;;;5034673;28;20204;-71
2021/11/17 08:27:06;;;;;;;6.20;4.88;;;8.10;99.90;;;;;;5034845;28;20204;-71
2021/11/17 08:29:35;;;;;;;7.47;5.50;;;8.10;99.90;;;;;;5034907;28;20590;-70
2021/11/17 08:32:02;;;;;;;8.05;4.35;;;8.10;99.90;;;;;;5034442;28;20220;-70
2021/11/17 08:34:30;;;;;;;9.32;5.20;;;8.20;99.90;;;;;;5034503;28;20208;-70
2021/11/17 08:36:57;;;;;;;6.53;4.57;;;8.30;99.90;;;;;;5034972;28;20208;-72
2021/11/17 08:39:25;;;;;;;4.80;3.85;;;8.40;99.90;;;;;;5034771;28;20244;-72
2021/11/17 08:41:52;;;;;;;4.63;3.58;;;8.50;99.90;;;;;;5034441;28;20212;-71
2021/11/17 08:44:19;;;;;;;3.95;3.55;;;8.60;99.90;;;;;;5034416;28;20311;-71
2021/11/17 08:46:47;;;;;;;4.20;2.95;;;8.50;99.90;;;;;;5034503;28;20299;-70
2021/11/17 08:49:14;;;;;;;3.78;3.28;;;8.60;99.90;;;;;;5034850;28;20331;-70
2021/11/17 08:51:42;;;;;;;4.53;3.42;;;8.50;99.90;;;;;;5034831;28;20226;-70
2021/11/17 08:54:09;;;;;;;4.13;3.58;;;8.50;99.90;;;;;;5034709;28;20226;-70
2021/11/17 08:56:38;;;;;;;6.93;3.95;;;8.20;99.90;;;;;;5034534;28;20206;-71
2021/11/17 08:59:06;;;;;;;3.70;3.20;;;8.10;99.90;;;;;;5034025;28;20226;-71
2021/11/17 09:01:34;;;;;;;4.07;3.67;;;8.00;99.90;;;;;;5034309;28;20663;-71
2021/11/17 09:04:06;;;;;;;4.35;3.10;;;7.80;99.90;;;;;;5034897;28;20287;-69
2021/11/17 09:06:33;;;;;;;3.10;2.63;;;7.60;99.90;;;;;;5035374;28;20208;-70
2021/11/17 09:09:04;;;;;;;4.72;3.70;;;7.60;99.90;;;;;;5035475;28;20226;-70
2021/11/17 09:11:31;;;;;;;3.38;3.08;;;7.40;99.90;;;;;;5035439;28;20212;-69
2021/11/17 09:13:58;;;;;;;5.80;3.70;;;7.40;99.90;;;;;;5035220;28;20232;-69
2021/11/17 09:16:29;;;;;;;4.15;3.60;;;7.40;99.90;;;;;;5034864;28;20244;-69
2021/11/17 09:18:57;;;;;;;4.63;2.83;;;7.50;99.90;;;;;;5035267;28;20256;-69
2021/11/17 09:21:27;;;;;;;3.70;3.30;;;7.50;99.90;;;;;;5035063;28;20669;-69
2021/11/17 09:23:54;;;;;;;6.15;3.35;;;7.30;99.90;;;;;;5035077;28;20208;-69
2021/11/17 09:26:22;;;;;;;6.30;5.53;;;7.20;99.90;;;;;;5034707;28;20210;-70
2021/11/17 09:28:50;;;;;;;3.95;3.35;;;7.00;99.90;;;;;;5035333;28;20234;-69
2021/11/17 09:31:17;;;;;;;4.32;3.45;;;7.00;99.90;;;;;;5035442;28;20750;-69
2021/11/17 09:33:46;;;;;;;4.18;3.13;;;7.10;99.90;;;;;;5034561;28;20224;-69
2021/11/17 09:36:15;;;;;;;2.80;2.47;;;7.30;99.90;;;;;;5034715;28;20212;-69
2021/11/17 09:38:44;;;;;;;3.50;2.70;;;7.40;99.90;;;;;;5034728;28;20643;-69
2021/11/17 09:41:13;;;;;;;4.22;3.10;;;7.40;99.90;;;;;;5034894;28;20203;-69
2021/11/17 09:43:45;;;;;;;2.90;2.70;;;7.50;99.90;;;;;;5034683;28;20670;-69
2021/11/17 09:46:14;;;;;;;4.03;3.00;;;7.60;99.90;;;;;;5034528;28;20200;-69
2021/11/17 09:48:44;;;;;;;3.22;2.92;;;7.60;99.90;;;;;;5034677;28;20224;-69
2021/11/17 09:51:15;;;;;;;4.05;3.25;;;7.70;99.90;;;;;;5034802;28;20298;-69
2021/11/17 09:53:47;;;;;;;2.95;2.65;;;7.80;99.90;;;;;;5034648;28;20235;-70
2021/11/17 09:56:17;;;;;;;2.55;2.25;;;7.80;99.90;;;;;;5034576;28;20236;-70
2021/11/17 09:58:47;;;;;;;3.20;2.90;;;7.90;99.90;;;;;;5034291;28;20315;-69
2021/11/17 10:01:17;;;;;;;3.65;2.38;;;8.00;99.90;;;;;;5034830;28;20204;-69
2021/11/17 10:03:49;;;;;;;3.20;2.65;;;7.90;99.90;;;;;;5034466;28;20262;-69
2021/11/17 10:09:38;;;;;;;3.45;2.83;;;7.90;99.90;;;;;;5034343;28;20266;-69
2021/11/17 10:14:54;;;;;;;2.53;2.33;;;8.00;99.90;;;;;;5034324;28;20246;-69
2021/11/17 10:17:36;;;;;;;2.17;1.98;;;8.10;99.90;;;;;;5034196;28;20232;-69
2021/11/17 10:20:16;;;;;;;3.13;2.47;;;8.10;99.90;;;;;;5034512;28;20197;-69
2021/11/17 10:22:46;;;;;;;2.25;2.00;;;8.10;99.90;;;;;;5034158;28;20279;-69
2021/11/17 10:25:16;;;;;;;4.78;2.65;;;8.20;99.90;;;;;;5033957;28;20200;-69
2021/11/17 10:27:55;;;;;;;2.95;2.67;;;8.20;99.90;;;;;;5033963;28;20228;-69
2021/11/17 10:30:31;;;;;;;3.28;2.35;;;8.40;99.90;;;;;;5033824;28;20639;-69
2021/11/17 10:33:17;;;;;;;2.40;2.20;;;8.20;99.90;;;;;;5033797;28;20227;-69
2021/11/17 10:36:00;;;;;;;3.55;2.10;;;8.10;99.90;;;;;;5033525;28;20666;-69
2021/11/17 10:38:29;;;;;;;2.20;2.05;;;8.10;99.90;;;;;;5033622;28;20231;-69
2021/11/17 10:41:01;;;;;;;3.42;2.10;;;8.10;99.90;;;;;;5033735;28;20219;-69
2021/11/17 10:43:31;;;;;;;1.60;1.50;;;8.10;99.90;;;;;;5033936;28;20291;-69
2021/11/17 10:46:04;;;;;;;2.15;2.05;;;8.10;99.90;;;;;;5032869;28;20295;-69
2021/11/17 10:48:33;;;;;;;2.10;1.63;;;8.10;99.90;;;;;;5033788;28;20586;-69
2021/11/17 10:51:13;;;;;;;1.50;1.30;;;8.10;99.90;;;;;;5033746;28;20206;-69
2021/11/17 10:53:40;;;;;;;1.40;1.30;;;8.10;99.90;;;;;;5033546;28;20224;-70
2021/11/17 10:56:13;;;;;;;2.40;1.75;;;8.30;99.90;;;;;;5033322;28;20208;-69
2021/11/17 10:58:43;;;;;;;2.50;2.10;;;8.40;99.90;;;;;;5033658;28;20709;-69
2021/11/17 11:01:14;;;;;;;2.00;1.60;;;8.40;99.90;;;;;;5033767;28;20208;-69
2021/11/17 11:03:44;;;;;;;1.88;1.40;;;8.50;99.90;;;;;;5033847;28;20201;-69
2021/11/17 11:06:16;;;;;;;3.17;2.50;;;8.60;99.90;;;;;;5033397;28;20208;-70
2021/11/17 11:08:56;;;;;;;2.05;1.85;;;8.50;99.90;;;;;;5033725;28;20311;-70
2021/11/17 11:11:26;;;;;;;3.03;1.90;;;8.50;99.90;;;;;;5033567;28;20577;-69
2021/11/17 11:13:55;;;;;;;2.05;1.85;;;8.40;99.90;;;;;;5033388;28;20224;-69
2021/11/17 11:16:28;;;;;;;2.55;1.80;;;8.20;99.90;;;;;;5033095;28;20752;-70
2021/11/17 11:19:17;;;;;;;2.03;1.83;;;8.20;99.90;;;;;;5033334;28;20725;-69
2021/11/17 11:22:19;;;;;;;2.22;1.80;;;8.30;99.90;;;;;;5033800;28;20299;-69
2021/11/17 11:24:49;;;;;;;2.60;1.83;;;8.50;99.90;;;;;;5026789;28;20214;-69
2021/11/17 11:27:26;;;;;;;2.28;1.80;;;8.60;99.90;;;;;;5033135;28;20222;-69
2021/11/17 11:30:41;;;;;;;3.60;1.85;;;8.60;99.90;;;;;;5033276;28;20188;-69
2021/11/17 11:33:31;;;;;;;2.03;1.83;;;8.60;99.90;;;;;;5033340;28;20234;-70
2021/11/17 11:36:35;;;;;;;1.65;1.55;;;8.50;99.90;;;;;;5032967;28;20696;-69
2021/11/17 11:39:28;;;;;;;1.77;1.67;;;8.50;99.90;;;;;;5033281;28;20224;-69
2021/11/17 11:42:27;;;;;;;2.25;1.85;;;8.50;99.90;;;;;;5034069;28;20204;-69
2021/11/17 11:44:58;;;;;;;2.20;2.00;;;8.60;99.90;;;;;;5033051;28;20214;-69
2021/11/17 11:47:56;;;;;;;2.00;1.75;;;8.60;99.90;;;;;;5033240;28;20579;-69
2021/11/17 11:50:57;;;;;;;2.40;1.90;;;8.20;99.90;;;;;;5033258;28;20208;-69
2021/11/17 11:53:42;;;;;;;2.13;1.52;;;8.20;99.90;;;;;;5032974;28;20231;-69
2021/11/17 11:56:27;;;;;;;2.58;1.60;;;8.20;99.90;;;;;;5033257;28;20296;-70
2021/11/17 11:59:03;;;;;;;3.25;1.70;;;8.30;99.90;;;;;;5036831;28;20227;-69
2021/11/17 12:01:31;;;;;;;1.90;1.80;;;8.30;99.90;;;;;;5036707;28;20665;-69
2021/11/17 12:04:01;;;;;;;2.03;1.80;;;8.30;99.90;;;;;;5036769;28;20291;-69
2021/11/17 12:06:35;;;;;;;2.40;2.00;;;8.40;99.90;;;;;;5036337;28;20211;-70
2021/11/17 12:09:12;;;;;;;1.60;1.50;;;8.30;99.90;;;;;;5036389;28;20234;-70
2021/11/17 12:11:47;;;;;;;3.65;1.80;;;8.40;99.90;;;;;;5036644;28;20227;-69
2021/11/17 12:14:27;;;;;;;2.80;1.90;;;8.40;99.90;;;;;;5036452;28;20228;-69
2021/11/17 12:16:56;;;;;;;1.90;1.60;;;8.40;99.90;;;;;;5036321;28;20666;-70
2021/11/17 12:19:34;;;;;;;1.70;1.52;;;8.40;99.90;;;;;;5036492;28;20210;-70
2021/11/17 12:22:05;;;;;;;1.88;1.55;;;8.30;99.90;;;;;;5036565;28;20208;-69
2021/11/17 12:24:34;;;;;;;2.00;1.80;;;8.30;99.90;;;;;;5036149;28;20688;-69
2021/11/17 12:27:05;;;;;;;3.60;1.98;;;8.40;99.90;;;;;;5036222;28;20210;-69
2021/11/17 12:29:40;;;;;;;2.22;2.03;;;8.40;99.90;;;;;;5036388;28;20199;-70
2021/11/17 12:32:15;;;;;;;2.55;1.80;;;8.30;99.90;;;;;;5036284;28;20565;-69
2021/11/17 12:34:58;;;;;;;2.97;2.20;;;8.10;99.90;;;;;;5035955;28;20229;-69
2021/11/17 12:37:29;;;;;;;1.73;1.63;;;7.90;99.90;;;;;;5036362;28;20228;-69
2021/11/17 12:39:59;;;;;;;2.10;1.90;;;7.80;99.90;;;;;;5036132;28;20184;-69
2021/11/17 12:42:36;;;;;;;3.78;2.05;;;7.80;99.90;;;;;;5036058;28;20224;-69
2021/11/17 12:45:16;;;;;;;2.40;2.15;;;7.90;99.90;;;;;;5035663;28;20211;-69
2021/11/17 12:47:51;;;;;;;2.38;1.80;;;8.00;99.90;;;;;;5036033;28;20227;-69
2021/11/17 12:50:26;;;;;;;2.15;1.65;;;8.20;99.90;;;;;;5035969;28;20188;-69
2021/11/17 12:52:57;;;;;;;1.90;1.77;;;8.20;99.90;;;;;;5036084;28;20204;-69
2021/11/17 12:55:29;;;;;;;3.55;1.70;;;8.30;99.90;;;;;;5035853;28;20208;-69
2021/11/17 12:58:01;;;;;;;1.60;1.50;;;8.30;99.90;;;;;;5035892;28;20236;-69
2021/11/17 13:00:58;;;;;;;3.55;1.92;;;8.30;99.90;;;;;;5035774;28;20195;-69
2021/11/17 13:03:31;;;;;;;2.05;1.60;;;8.30;99.90;;;;;;5035513;28;20214;-69
2021/11/17 13:06:09;;;;;;;3.80;1.70;;;8.30;99.90;;;;;;5035522;28;20294;-69
2021/11/17 13:08:37;;;;;;;1.80;1.70;;;8.30;99.90;;;;;;5035224;28;20589;-69
2021/11/17 13:11:13;;;;;;;1.42;1.33;;;8.20;99.90;;;;;;5035227;28;20689;-69
2021/11/17 13:13:44;;;;;;;1.50;1.40;;;8.30;99.90;;;;;;5035560;28;20539;-69
2021/11/17 13:16:14;;;;;;;77.68;22.08;;;8.30;99.90;;;;;;5035353;28;20628;-69
2021/11/17 13:18:55;;;;;;;2.13;1.92;;;8.30;99.90;;;;;;5035172;28;20650;-69
2021/11/17 13:21:37;;;;;;;4.07;1.90;;;8.20;99.90;;;;;;5035393;28;20203;-69
2021/11/17 13:24:13;;;;;;;2.90;2.20;;;8.20;99.90;;;;;;5035457;28;20204;-69
2021/11/17 13:26:43;;;;;;;2.30;2.00;;;8.20;99.90;;;;;;5035182;28;20294;-69
2021/11/17 13:29:23;;;;;;;3.38;1.60;;;8.20;99.90;;;;;;5034911;28;20732;-69
2021/11/17 13:31:51;;;;;;;1.40;1.30;;;8.30;99.90;;;;;;5035090;28;20207;-69
2021/11/17 13:34:38;;;;;;;1.15;1.15;;;8.20;99.90;;;;;;5034744;28;20228;-69
2021/11/17 13:37:23;;;;;;;2.03;1.55;;;8.20;99.90;;;;;;5035012;28;20284;-69
2021/11/17 13:39:54;;;;;;;1.52;1.42;;;8.30;99.90;;;;;;5035287;28;20192;-69
2021/11/17 13:42:22;;;;;;;1.58;1.48;;;8.20;99.90;;;;;;5034882;28;20295;-69
2021/11/17 13:44:49;;;;;;;2.08;1.88;;;8.30;99.90;;;;;;5034692;28;20203;-69
2021/11/17 13:47:18;;;;;;;1.30;1.17;;;8.30;99.90;;;;;;5034700;28;20208;-69
2021/11/17 13:49:51;;;;;;;1.60;1.50;;;8.30;99.90;;;;;;5034896;28;20204;-69
2021/11/17 13:52:20;;;;;;;1.60;1.50;;;8.30;99.90;;;;;;5035303;28;20208;-69
2021/11/17 13:54:47;;;;;;;2.92;1.85;;;8.40;99.90;;;;;;5034529;28;20220;-69
2021/11/17 13:57:15;;;;;;;2.50;2.00;;;8.40;99.90;;;;;;5034546;28;20208;-69
2021/11/17 13:59:42;;;;;;;2.55;1.25;;;8.50;99.90;;;;;;5034597;28;20299;-69
2021/11/17 14:02:10;;;;;;;1.65;1.48;;;8.50;99.90;;;;;;5034827;28;20201;-69
2021/11/17 14:04:37;;;;;;;3.20;2.22;;;8.50;99.90;;;;;;5034252;28;20283;-70
2021/11/17 14:07:07;;;;;;;2.20;1.70;;;8.50;99.90;;;;;;5034311;28;20296;-70
2021/11/17 14:09:34;;;;;;;1.55;1.35;;;8.40;99.90;;;;;;5034455;28;20288;-69
2021/11/17 14:12:03;;;;;;;1.52;1.42;;;8.30;99.90;;;;;;5034369;28;20617;-70
2021/11/17 14:14:30;;;;;;;1.70;1.60;;;8.30;99.90;;;;;;5034118;28;20248;-69
2021/11/17 14:16:57;;;;;;;2.72;1.50;;;8.30;99.90;;;;;;5034319;28;20234;-69
2021/11/17 14:19:24;;;;;;;1.55;1.38;;;8.30;99.90;;;;;;5034226;28;20632;-70
2021/11/17 14:21:51;;;;;;;3.00;2.03;;;8.30;99.90;;;;;;5034244;28;20666;-69
2021/11/17 14:24:20;;;;;;;1.65;1.55;;;8.40;99.90;;;;;;5034101;28;20200;-69
2021/11/17 14:26:48;;;;;;;1.95;1.45;;;8.40;99.90;;;;;;5033792;28;20236;-70
2021/11/17 14:29:18;;;;;;;1.75;1.40;;;8.40;99.90;;;;;;5034007;28;20227;-69
2021/11/17 14:31:49;;;;;;;2.35;1.90;;;8.40;99.90;;;;;;5034089;28;20208;-70
2021/11/17 14:34:16;;;;;;;1.60;1.42;;;8.40;99.90;;;;;;5033951;28;20596;-69
2021/11/17 14:36:48;;;;;;;1.98;1.80;;;8.40;99.90;;;;;;5033679;28;20210;-70
2021/11/17 14:39:15;;;;;;;1.65;1.55;;;8.40;99.90;;;;;;5034693;28;20230;-69
2021/11/17 14:41:44;;;;;;;2.75;1.65;;;8.40;99.90;;;;;;5033762;28;20299;-69
2021/11/17 14:44:11;;;;;;;2.70;2.00;;;8.40;99.90;;;;;;5033750;28;20204;-69
2021/11/17 14:46:38;;;;;;;2.90;2.30;;;8.30;99.90;;;;;;5033696;28;20204;-70
2021/11/17 14:49:06;;;;;;;3.20;2.25;;;8.30;99.90;;;;;;5033825;28;20363;-69
2021/11/17 14:51:33;;;;;;;3.15;2.00;;;8.30;99.90;;;;;;5033826;28;20658;-69
2021/11/17 14:54:00;;;;;;;3.47;2.45;;;8.30;99.90;;;;;;5033868;28;20223;-69
2021/11/17 14:56:28;;;;;;;13.85;7.40;;;8.30;99.90;;;;;;5033809;28;20208;-70
2021/11/17 14:58:56;;;;;;;3.78;3.22;;;8.40;99.90;;;;;;5033930;28;20578;-69
2021/11/17 15:01:25;;;;;;;2.63;2.38;;;8.50;99.90;;;;;;5033752;28;20214;-69
2021/11/17 15:03:53;;;;;;;3.72;2.55;;;8.50;99.90;;;;;;5033419;28;20226;-70
2021/11/17 15:06:22;;;;;;;2.70;2.50;;;8.60;99.90;;;;;;5033377;28;20696;-69
2021/11/17 15:08:52;;;;;;;2.58;2.33;;;8.60;99.90;;;;;;5033924;28;20731;-70
2021/11/17 15:11:20;;;;;;;3.40;2.55;;;8.60;99.90;;;;;;5033619;28;20210;-69
2021/11/17 15:13:48;;;;;;;4.97;2.95;;;8.60;99.90;;;;;;5033772;28;20203;-69
2021/11/17 15:16:16;;;;;;;6.10;3.00;;;8.60;99.90;;;;;;5033162;28;20211;-70
2021/11/17 15:18:45;;;;;;;2.83;2.63;;;8.60;99.90;;;;;;5033857;28;20220;-70
2021/11/17 15:21:15;;;;;;;3.03;2.67;;;8.60;99.90;;;;;;5033953;28;20283;-69
2021/11/17 15:23:42;;;;;;;3.60;3.13;;;8.50;99.90;;;;;;5033445;28;20272;-69
2021/11/17 15:26:10;;;;;;;6.32;3.05;;;8.50;99.90;;;;;;5033491;28;20295;-69
2021/11/17 15:28:42;;;;;;;10.02;5.18;;;8.60;99.90;;;;;;5033384;28;20234;-70
2021/11/17 15:31:11;;;;;;;3.58;3.10;;;8.60;99.90;;;;;;5034361;28;20208;-69
2021/11/17 15:33:39;;;;;;;3.88;3.03;;;8.60;99.90;;;;;;5037292;28;20741;-69
2021/11/17 15:36:08;;;;;;;5.38;2.72;;;8.50;99.90;;;;;;5037387;28;20299;-69
2021/11/17 15:38:36;;;;;;;3.05;2.60;;;8.50;99.90;;;;;;5037284;28;20588;-69
2021/11/17 15:41:06;;;;;;;3.35;2.78;;;8.50;99.90;;;;;;5037661;28;20295;-70
2021/11/17 15:43:34;;;;;;;3.47;2.97;;;8.50;99.90;;;;;;5037344;28;20303;-69
2021/11/17 15:46:01;;;;;;;3.13;2.70;;;8.50;99.90;;;;;;5036914;28;20196;-69
2021/11/17 15:48:30;;;;;;;3.25;2.67;;;8.50;99.90;;;;;;5036662;28;20724;-69
2021/11/17 15:51:01;;;;;;;3.00;2.10;;;8.40;99.90;;;;;;5037312;28;20204;-69
2021/11/17 15:53:28;;;;;;;2.92;2.38;;;8.40;99.90;;;;;;5036956;28;20218;-70
2021/11/17 15:55:55;;;;;;;1.95;1.83;;;8.40;99.90;;;;;;5036654;28;20224;-69
2021/11/17 15:58:23;;;;;;;3.28;2.30;;;8.40;99.90;;;;;;5037232;28;20316;-69
2021/11/17 16:00:50;;;;;;;7.88;4.60;;;8.50;99.90;;;;;;5036888;28;20204;-70
2021/11/17 16:03:18;;;;;;;3.72;2.28;;;8.60;99.90;;;;;;5036965;28;20201;-69
2021/11/17 16:05:47;;;;;;;2.92;2.25;;;8.60;99.90;;;;;;5036462;28;20210;-70